sensor_id;sensor_type;location;lat;lon;timestamp;temperature;humidity
26703;DHT22;14316;51.074;3.704;2022-08-30T00:01:14;18.10;99.90
26703;DHT22;14316;51.074;3.704;2022-08-30T00:03:45;18.00;99.90
26703;DHT22;14316;51.074;3.704;2022-08-30T00:06:13;18.00;99.90
26703;DHT22;14316;51.074;3.704;2022-08-30T00:08:40;17.90;99.90
26703;DHT22;14316;51.074;3.704;2022-08-30T00:11:10;17.90;99.90
26703;DHT22;14316;51.074;3.704;2022-08-30T00:13:37;18.00;99.90
26703;DHT22;14316;51.074;3.704;2022-08-30T00:16:04;17.90;99.90
26703;DHT22;14316;51.074;3.704;2022-08-30T00:18:32;18.00;99.90
26703;DHT22;14316;51.074;3.704;2022-08-30T00:20:58;17.90;99.90
26703;DHT22;14316;51.074;3.704;2022-08-30T00:23:24;17.90;99.90
26703;DHT22;14316;51.074;3.704;2022-08-30T00:25:51;18.00;99.90
26703;DHT22;14316;51.074;3.704;2022-08-30T00:28:17;18.00;99.90
26703;DHT22;14316;51.074;3.704;2022-08-30T00:30:44;18.00;99.90
26703;DHT22;14316;51.074;3.704;2022-08-30T00:33:10;18.10;99.90
26703;DHT22;14316;51.074;3.704;2022-08-30T00:35:36;18.10;99.90
26703;DHT22;14316;51.074;3.704;2022-08-30T00:38:07;18.10;99.90
26703;DHT22;14316;51.074;3.704;2022-08-30T00:40:34;18.20;99.90
26703;DHT22;14316;51.074;3.704;2022-08-30T00:43:04;18.20;99.90
26703;DHT22;14316;51.074;3.704;2022-08-30T00:45:34;18.10;99.90
26703;DHT22;14316;51.074;3.704;2022-08-30T00:48:00;18.10;99.90
26703;DHT22;14316;51.074;3.704;2022-08-30T00:50:49;18.10;99.90
26703;DHT22;14316;51.074;3.704;2022-08-30T00:53:28;18.10;99.90
26703;DHT22;14316;51.074;3.704;2022-08-30T00:55:55;18.10;99.90
26703;DHT22;14316;51.074;3.704;2022-08-30T00:58:28;18.20;99.90
26703;DHT22;14316;51.074;3.704;2022-08-30T01:00:57;18.10;99.90
26703;DHT22;14316;51.074;3.704;2022-08-30T01:03:25;18.10;99.90
26703;DHT22;14316;51.074;3.704;2022-08-30T01:05:52;18.20;99.90
26703;DHT22;14316;51.074;3.704;2022-08-30T01:08:19;18.20;99.90
26703;DHT22;14316;51.074;3.704;2022-08-30T01:10:46;18.20;99.90
26703;DHT22;14316;51.074;3.704;2022-08-30T01:13:13;18.20;99.90
26703;DHT22;14316;51.074;3.704;2022-08-30T01:15:42;18.20;99.90
26703;DHT22;14316;51.074;3.704;2022-08-30T01:18:08;18.20;99.90
26703;DHT22;14316;51.074;3.704;2022-08-30T01:21:16;18.10;99.90
26703;DHT22;14316;51.074;3.704;2022-08-30T01:23:44;18.10;99.90
26703;DHT22;14316;51.074;3.704;2022-08-30T01:26:11;18.00;99.90
26703;DHT22;14316;51.074;3.704;2022-08-30T01:28:39;18.00;99.90
26703;DHT22;14316;51.074;3.704;2022-08-30T01:31:06;18.00;99.90
26703;DHT22;14316;51.074;3.704;2022-08-30T01:33:34;18.00;99.90
26703;DHT22;14316;51.074;3.704;2022-08-30T01:36:05;17.90;99.90
26703;DHT22;14316;51.074;3.704;2022-08-30T01:38:45;17.90;99.90
26703;DHT22;14316;51.074;3.704;2022-08-30T01:41:23;17.90;99.90
26703;DHT22;14316;51.074;3.704;2022-08-30T01:43:52;17.90;99.90
26703;DHT22;14316;51.074;3.704;2022-08-30T01:46:19;17.80;99.90
26703;DHT22;14316;51.074;3.704;2022-08-30T01:48:46;17.80;99.90
26703;DHT22;14316;51.074;3.704;2022-08-30T01:51:13;17.80;99.90
26703;DHT22;14316;51.074;3.704;2022-08-30T01:53:40;17.80;99.90
26703;DHT22;14316;51.074;3.704;2022-08-30T01:56:07;17.70;99.90
26703;DHT22;14316;51.074;3.704;2022-08-30T01:58:37;17.70;99.90
26703;DHT22;14316;51.074;3.704;2022-08-30T02:01:06;17.70;99.90
26703;DHT22;14316;51.074;3.704;2022-08-30T02:03:33;17.70;99.90
26703;DHT22;14316;51.074;3.704;2022-08-30T02:06:08;17.70;99.90
26703;DHT22;14316;51.074;3.704;2022-08-30T02:08:35;17.70;99.90
26703;DHT22;14316;51.074;3.704;2022-08-30T02:11:04;17.60;99.90
26703;DHT22;14316;51.074;3.704;2022-08-30T02:13:30;17.60;99.90
26703;DHT22;14316;51.074;3.704;2022-08-30T02:15:57;17.60;99.90
26703;DHT22;14316;51.074;3.704;2022-08-30T02:18:24;17.60;99.90
26703;DHT22;14316;51.074;3.704;2022-08-30T02:20:50;17.50;99.90
26703;DHT22;14316;51.074;3.704;2022-08-30T02:23:16;17.50;99.90
26703;DHT22;14316;51.074;3.704;2022-08-30T02:25:43;17.50;99.90
26703;DHT22;14316;51.074;3.704;2022-08-30T02:28:10;17.50;99.90
26703;DHT22;14316;51.074;3.704;2022-08-30T02:30:36;17.50;99.90
26703;DHT22;14316;51.074;3.704;2022-08-30T02:33:02;17.50;99.90
26703;DHT22;14316;51.074;3.704;2022-08-30T02:35:28;17.50;99.90
26703;DHT22;14316;51.074;3.704;2022-08-30T02:37:54;17.50;99.90
26703;DHT22;14316;51.074;3.704;2022-08-30T02:40:21;17.40;99.90
26703;DHT22;14316;51.074;3.704;2022-08-30T02:42:47;17.50;99.90
26703;DHT22;14316;51.074;3.704;2022-08-30T02:45:13;17.40;99.90
26703;DHT22;14316;51.074;3.704;2022-08-30T02:47:40;17.40;99.90
26703;DHT22;14316;51.074;3.704;2022-08-30T02:50:07;17.40;99.90
26703;DHT22;14316;51.074;3.704;2022-08-30T02:52:35;17.40;99.90
26703;DHT22;14316;51.074;3.704;2022-08-30T02:55:01;17.30;99.90
26703;DHT22;14316;51.074;3.704;2022-08-30T02:57:27;17.40;99.90
26703;DHT22;14316;51.074;3.704;2022-08-30T02:59:53;17.40;99.90
26703;DHT22;14316;51.074;3.704;2022-08-30T03:02:18;17.40;99.90
26703;DHT22;14316;51.074;3.704;2022-08-30T03:04:47;17.60;99.90
26703;DHT22;14316;51.074;3.704;2022-08-30T03:07:14;17.40;99.90
26703;DHT22;14316;51.074;3.704;2022-08-30T03:09:40;17.40;99.90
26703;DHT22;14316;51.074;3.704;2022-08-30T03:12:07;17.40;99.90
26703;DHT22;14316;51.074;3.704;2022-08-30T03:14:34;17.40;99.90
26703;DHT22;14316;51.074;3.704;2022-08-30T03:17:03;17.40;99.90
26703;DHT22;14316;51.074;3.704;2022-08-30T03:19:29;17.40;99.90
26703;DHT22;14316;51.074;3.704;2022-08-30T03:21:54;17.40;99.90
26703;DHT22;14316;51.074;3.704;2022-08-30T03:24:20;17.40;99.90
26703;DHT22;14316;51.074;3.704;2022-08-30T03:26:46;17.40;99.90
26703;DHT22;14316;51.074;3.704;2022-08-30T03:29:13;17.40;99.90
26703;DHT22;14316;51.074;3.704;2022-08-30T03:31:38;17.40;99.90
26703;DHT22;14316;51.074;3.704;2022-08-30T03:34:04;17.40;99.90
26703;DHT22;14316;51.074;3.704;2022-08-30T03:36:31;17.30;99.90
26703;DHT22;14316;51.074;3.704;2022-08-30T03:38:56;17.30;99.90
26703;DHT22;14316;51.074;3.704;2022-08-30T03:41:23;17.30;99.90
26703;DHT22;14316;51.074;3.704;2022-08-30T03:43:49;17.30;99.90
26703;DHT22;14316;51.074;3.704;2022-08-30T03:46:15;17.30;99.90
26703;DHT22;14316;51.074;3.704;2022-08-30T03:48:41;17.40;99.90
26703;DHT22;14316;51.074;3.704;2022-08-30T03:51:08;17.30;99.90
26703;DHT22;14316;51.074;3.704;2022-08-30T03:53:34;17.30;99.90
26703;DHT22;14316;51.074;3.704;2022-08-30T03:56:00;17.30;99.90
26703;DHT22;14316;51.074;3.704;2022-08-30T03:58:26;17.30;99.90
26703;DHT22;14316;51.074;3.704;2022-08-30T04:00:52;17.30;99.90
26703;DHT22;14316;51.074;3.704;2022-08-30T04:03:17;17.30;99.90
26703;DHT22;14316;51.074;3.704;2022-08-30T04:05:54;17.30;99.90
26703;DHT22;14316;51.074;3.704;2022-08-30T04:08:20;17.30;99.90
26703;DHT22;14316;51.074;3.704;2022-08-30T04:10:46;17.30;99.90
26703;DHT22;14316;51.074;3.704;2022-08-30T04:13:15;17.30;99.90
26703;DHT22;14316;51.074;3.704;2022-08-30T04:15:41;17.20;99.90
26703;DHT22;14316;51.074;3.704;2022-08-30T04:18:07;17.20;99.90
26703;DHT22;14316;51.074;3.704;2022-08-30T04:20:34;17.20;99.90
26703;DHT22;14316;51.074;3.704;2022-08-30T04:23:00;17.20;99.90
26703;DHT22;14316;51.074;3.704;2022-08-30T04:25:27;17.20;99.90
26703;DHT22;14316;51.074;3.704;2022-08-30T04:27:52;17.20;99.90
26703;DHT22;14316;51.074;3.704;2022-08-30T04:30:18;17.20;99.90
26703;DHT22;14316;51.074;3.704;2022-08-30T04:32:44;17.20;99.90
26703;DHT22;14316;51.074;3.704;2022-08-30T04:35:11;17.30;99.90
26703;DHT22;14316;51.074;3.704;2022-08-30T04:37:38;17.30;99.90
26703;DHT22;14316;51.074;3.704;2022-08-30T04:40:04;17.40;99.90
26703;DHT22;14316;51.074;3.704;2022-08-30T04:42:33;17.40;99.90
26703;DHT22;14316;51.074;3.704;2022-08-30T04:45:02;17.50;99.90
26703;DHT22;14316;51.074;3.704;2022-08-30T04:47:30;17.50;99.90
26703;DHT22;14316;51.074;3.704;2022-08-30T04:49:56;17.60;99.90
26703;DHT22;14316;51.074;3.704;2022-08-30T04:52:22;17.60;99.90
26703;DHT22;14316;51.074;3.704;2022-08-30T04:54:53;17.60;99.90
26703;DHT22;14316;51.074;3.704;2022-08-30T04:57:19;17.50;99.90
26703;DHT22;14316;51.074;3.704;2022-08-30T04:59:45;17.50;99.90
26703;DHT22;14316;51.074;3.704;2022-08-30T05:02:10;17.40;99.90
26703;DHT22;14316;51.074;3.704;2022-08-30T05:04:36;17.50;99.90
26703;DHT22;14316;51.074;3.704;2022-08-30T05:07:02;17.40;99.90
26703;DHT22;14316;51.074;3.704;2022-08-30T05:09:28;17.50;99.90
26703;DHT22;14316;51.074;3.704;2022-08-30T05:11:53;17.50;99.90
26703;DHT22;14316;51.074;3.704;2022-08-30T05:14:19;17.50;99.90
26703;DHT22;14316;51.074;3.704;2022-08-30T05:16:45;17.50;99.90
26703;DHT22;14316;51.074;3.704;2022-08-30T05:19:11;17.60;99.90
26703;DHT22;14316;51.074;3.704;2022-08-30T05:21:37;17.70;99.90
26703;DHT22;14316;51.074;3.704;2022-08-30T05:24:05;17.80;99.90
26703;DHT22;14316;51.074;3.704;2022-08-30T05:26:32;17.80;99.90
26703;DHT22;14316;51.074;3.704;2022-08-30T05:28:59;17.80;99.90
26703;DHT22;14316;51.074;3.704;2022-08-30T05:31:33;17.80;99.90
26703;DHT22;14316;51.074;3.704;2022-08-30T05:33:59;17.80;99.90
26703;DHT22;14316;51.074;3.704;2022-08-30T05:36:27;17.70;99.90
26703;DHT22;14316;51.074;3.704;2022-08-30T05:38:55;17.70;99.90
26703;DHT22;14316;51.074;3.704;2022-08-30T05:41:22;17.70;99.90
26703;DHT22;14316;51.074;3.704;2022-08-30T05:43:52;17.80;99.90
26703;DHT22;14316;51.074;3.704;2022-08-30T05:46:18;17.90;99.90
26703;DHT22;14316;51.074;3.704;2022-08-30T05:48:44;17.90;99.90
26703;DHT22;14316;51.074;3.704;2022-08-30T05:51:22;18.00;99.90
26703;DHT22;14316;51.074;3.704;2022-08-30T05:53:50;18.00;99.90
26703;DHT22;14316;51.074;3.704;2022-08-30T05:56:19;18.10;99.90
26703;DHT22;14316;51.074;3.704;2022-08-30T05:58:45;18.20;99.90
26703;DHT22;14316;51.074;3.704;2022-08-30T06:01:30;18.30;99.90
26703;DHT22;14316;51.074;3.704;2022-08-30T06:03:58;18.20;99.90
26703;DHT22;14316;51.074;3.704;2022-08-30T06:06:25;18.20;99.90
26703;DHT22;14316;51.074;3.704;2022-08-30T06:08:53;18.30;99.90
26703;DHT22;14316;51.074;3.704;2022-08-30T06:11:21;18.40;99.90
26703;DHT22;14316;51.074;3.704;2022-08-30T06:13:47;18.50;99.90
26703;DHT22;14316;51.074;3.704;2022-08-30T06:16:15;18.40;99.90
26703;DHT22;14316;51.074;3.704;2022-08-30T06:18:41;18.50;99.90
26703;DHT22;14316;51.074;3.704;2022-08-30T06:21:07;18.50;99.90
26703;DHT22;14316;51.074;3.704;2022-08-30T06:23:34;18.50;99.90
26703;DHT22;14316;51.074;3.704;2022-08-30T06:26:06;18.50;99.90
26703;DHT22;14316;51.074;3.704;2022-08-30T06:28:31;18.60;99.90
26703;DHT22;14316;51.074;3.704;2022-08-30T06:30:57;18.60;99.90
26703;DHT22;14316;51.074;3.704;2022-08-30T06:33:24;18.70;99.90
26703;DHT22;14316;51.074;3.704;2022-08-30T06:35:50;18.80;99.90
26703;DHT22;14316;51.074;3.704;2022-08-30T06:38:15;18.90;99.90
26703;DHT22;14316;51.074;3.704;2022-08-30T06:40:41;18.90;99.90
26703;DHT22;14316;51.074;3.704;2022-08-30T06:43:07;19.00;99.90
26703;DHT22;14316;51.074;3.704;2022-08-30T06:45:34;18.90;99.90
26703;DHT22;14316;51.074;3.704;2022-08-30T06:48:00;18.80;99.90
26703;DHT22;14316;51.074;3.704;2022-08-30T06:50:26;18.90;99.90
26703;DHT22;14316;51.074;3.704;2022-08-30T06:52:52;19.00;99.90
26703;DHT22;14316;51.074;3.704;2022-08-30T06:55:18;19.20;99.90
26703;DHT22;14316;51.074;3.704;2022-08-30T06:57:45;19.30;99.90
26703;DHT22;14316;51.074;3.704;2022-08-30T07:00:14;19.20;99.90
26703;DHT22;14316;51.074;3.704;2022-08-30T07:02:40;19.30;99.90
26703;DHT22;14316;51.074;3.704;2022-08-30T07:05:06;19.40;99.90
26703;DHT22;14316;51.074;3.704;2022-08-30T07:07:33;19.60;99.90
26703;DHT22;14316;51.074;3.704;2022-08-30T07:10:04;19.70;99.90
26703;DHT22;14316;51.074;3.704;2022-08-30T07:12:30;19.70;99.90
26703;DHT22;14316;51.074;3.704;2022-08-30T07:14:55;19.60;99.90
26703;DHT22;14316;51.074;3.704;2022-08-30T07:17:21;19.60;99.90
26703;DHT22;14316;51.074;3.704;2022-08-30T07:20:06;19.70;99.90
26703;DHT22;14316;51.074;3.704;2022-08-30T07:22:32;19.80;99.90
26703;DHT22;14316;51.074;3.704;2022-08-30T07:24:58;20.00;99.90
26703;DHT22;14316;51.074;3.704;2022-08-30T07:27:24;20.10;99.90
26703;DHT22;14316;51.074;3.704;2022-08-30T07:29:50;19.90;99.90
26703;DHT22;14316;51.074;3.704;2022-08-30T07:32:16;19.80;99.90
26703;DHT22;14316;51.074;3.704;2022-08-30T07:34:41;19.80;99.90
26703;DHT22;14316;51.074;3.704;2022-08-30T07:37:07;19.90;99.90
26703;DHT22;14316;51.074;3.704;2022-08-30T07:39:32;20.00;99.90
26703;DHT22;14316;51.074;3.704;2022-08-30T07:41:58;20.20;99.90
26703;DHT22;14316;51.074;3.704;2022-08-30T07:44:25;20.30;99.90
26703;DHT22;14316;51.074;3.704;2022-08-30T07:46:50;20.40;99.90
26703;DHT22;14316;51.074;3.704;2022-08-30T07:49:16;20.60;99.90
26703;DHT22;14316;51.074;3.704;2022-08-30T07:51:45;20.60;99.90
26703;DHT22;14316;51.074;3.704;2022-08-30T07:54:11;20.60;99.90
26703;DHT22;14316;51.074;3.704;2022-08-30T07:56:37;20.60;99.90
26703;DHT22;14316;51.074;3.704;2022-08-30T07:59:03;20.70;99.90
26703;DHT22;14316;51.074;3.704;2022-08-30T08:01:29;20.80;99.90
26703;DHT22;14316;51.074;3.704;2022-08-30T08:03:55;21.00;99.90
26703;DHT22;14316;51.074;3.704;2022-08-30T08:06:21;21.20;99.90
26703;DHT22;14316;51.074;3.704;2022-08-30T08:08:51;21.50;99.90
26703;DHT22;14316;51.074;3.704;2022-08-30T08:11:24;21.80;99.90
26703;DHT22;14316;51.074;3.704;2022-08-30T08:13:50;21.70;99.90
26703;DHT22;14316;51.074;3.704;2022-08-30T08:16:16;21.80;99.90
26703;DHT22;14316;51.074;3.704;2022-08-30T08:18:42;21.80;99.90
26703;DHT22;14316;51.074;3.704;2022-08-30T08:21:09;21.70;99.90
26703;DHT22;14316;51.074;3.704;2022-08-30T08:23:34;21.90;99.90
26703;DHT22;14316;51.074;3.704;2022-08-30T08:26:01;22.10;99.90
26703;DHT22;14316;51.074;3.704;2022-08-30T08:28:27;22.10;99.90
26703;DHT22;14316;51.074;3.704;2022-08-30T08:30:53;21.80;99.90
26703;DHT22;14316;51.074;3.704;2022-08-30T08:33:18;21.80;99.90
26703;DHT22;14316;51.074;3.704;2022-08-30T08:35:45;22.00;99.90
26703;DHT22;14316;51.074;3.704;2022-08-30T08:38:11;22.10;99.90
26703;DHT22;14316;51.074;3.704;2022-08-30T08:40:54;22.20;99.90
26703;DHT22;14316;51.074;3.704;2022-08-30T08:43:24;22.40;99.90
26703;DHT22;14316;51.074;3.704;2022-08-30T08:46:12;22.50;99.90
26703;DHT22;14316;51.074;3.704;2022-08-30T08:48:44;22.50;99.90
26703;DHT22;14316;51.074;3.704;2022-08-30T08:51:17;22.50;99.90
26703;DHT22;14316;51.074;3.704;2022-08-30T08:54:11;22.70;99.90
26703;DHT22;14316;51.074;3.704;2022-08-30T08:56:39;23.00;99.90
26703;DHT22;14316;51.074;3.704;2022-08-30T08:59:09;23.40;99.90
26703;DHT22;14316;51.074;3.704;2022-08-30T09:01:36;23.50;99.90
26703;DHT22;14316;51.074;3.704;2022-08-30T09:04:33;23.50;99.90
26703;DHT22;14316;51.074;3.704;2022-08-30T09:07:16;23.60;99.90
26703;DHT22;14316;51.074;3.704;2022-08-30T09:09:45;23.70;99.90
26703;DHT22;14316;51.074;3.704;2022-08-30T09:12:15;23.60;99.90
26703;DHT22;14316;51.074;3.704;2022-08-30T09:14:45;23.60;99.90
26703;DHT22;14316;51.074;3.704;2022-08-30T09:17:16;23.80;99.90
26703;DHT22;14316;51.074;3.704;2022-08-30T09:19:44;23.90;99.90
26703;DHT22;14316;51.074;3.704;2022-08-30T09:22:39;24.20;99.90
26703;DHT22;14316;51.074;3.704;2022-08-30T09:27:44;24.70;99.90
26703;DHT22;14316;51.074;3.704;2022-08-30T09:30:31;24.90;99.90
26703;DHT22;14316;51.074;3.704;2022-08-30T09:33:09;25.30;99.90
26703;DHT22;14316;51.074;3.704;2022-08-30T09:35:45;25.10;99.90
26703;DHT22;14316;51.074;3.704;2022-08-30T09:38:17;25.00;99.90
26703;DHT22;14316;51.074;3.704;2022-08-30T09:40:51;25.30;99.90
26703;DHT22;14316;51.074;3.704;2022-08-30T09:43:25;25.40;99.90
26703;DHT22;14316;51.074;3.704;2022-08-30T09:46:07;25.30;99.90
26703;DHT22;14316;51.074;3.704;2022-08-30T09:54:13;25.40;99.90
26703;DHT22;14316;51.074;3.704;2022-08-30T09:57:04;25.60;99.90
26703;DHT22;14316;51.074;3.704;2022-08-30T10:10:45;25.10;99.90
26703;DHT22;14316;51.074;3.704;2022-08-30T10:16:12;25.60;99.90
26703;DHT22;14316;51.074;3.704;2022-08-30T10:22:15;25.90;99.90
26703;DHT22;14316;51.074;3.704;2022-08-30T10:24:52;26.00;99.90
26703;DHT22;14316;51.074;3.704;2022-08-30T10:27:27;25.90;99.90
26703;DHT22;14316;51.074;3.704;2022-08-30T10:30:11;26.00;99.90
26703;DHT22;14316;51.074;3.704;2022-08-30T10:33:05;26.60;99.90
26703;DHT22;14316;51.074;3.704;2022-08-30T10:35:37;26.90;99.90
26703;DHT22;14316;51.074;3.704;2022-08-30T10:41:17;27.50;99.90
26703;DHT22;14316;51.074;3.704;2022-08-30T10:49:15;28.20;99.90
26703;DHT22;14316;51.074;3.704;2022-08-30T10:52:08;28.30;99.90
26703;DHT22;14316;51.074;3.704;2022-08-30T10:54:52;29.00;99.90
26703;DHT22;14316;51.074;3.704;2022-08-30T10:57:19;30.10;99.90
26703;DHT22;14316;51.074;3.704;2022-08-30T10:59:52;29.50;99.90
26703;DHT22;14316;51.074;3.704;2022-08-30T11:03:04;29.00;99.90
26703;DHT22;14316;51.074;3.704;2022-08-30T11:05:43;28.80;99.90
26703;DHT22;14316;51.074;3.704;2022-08-30T11:13:39;28.10;99.90
26703;DHT22;14316;51.074;3.704;2022-08-30T11:16:12;27.70;99.90
26703;DHT22;14316;51.074;3.704;2022-08-30T11:18:54;28.20;99.90
26703;DHT22;14316;51.074;3.704;2022-08-30T11:24:08;29.30;99.90
26703;DHT22;14316;51.074;3.704;2022-08-30T11:32:21;29.30;99.90
26703;DHT22;14316;51.074;3.704;2022-08-30T11:37:38;31.50;99.90
26703;DHT22;14316;51.074;3.704;2022-08-30T11:40:10;31.50;99.90
26703;DHT22;14316;51.074;3.704;2022-08-30T11:42:55;32.20;99.40
26703;DHT22;14316;51.074;3.704;2022-08-30T11:48:02;31.50;99.50
26703;DHT22;14316;51.074;3.704;2022-08-30T11:53:47;32.10;96.20
26703;DHT22;14316;51.074;3.704;2022-08-30T11:56:20;31.20;99.40
26703;DHT22;14316;51.074;3.704;2022-08-30T11:59:17;31.40;96.70
26703;DHT22;14316;51.074;3.704;2022-08-30T12:01:46;31.70;95.50
26703;DHT22;14316;51.074;3.704;2022-08-30T12:06:57;31.10;96.70
26703;DHT22;14316;51.074;3.704;2022-08-30T12:11:54;31.80;96.00
26703;DHT22;14316;51.074;3.704;2022-08-30T12:14:53;33.40;95.10
26703;DHT22;14316;51.074;3.704;2022-08-30T12:17:24;34.50;92.70
26703;DHT22;14316;51.074;3.704;2022-08-30T12:20:21;35.00;90.70
26703;DHT22;14316;51.074;3.704;2022-08-30T12:22:49;34.90;88.50
26703;DHT22;14316;51.074;3.704;2022-08-30T12:25:31;34.90;90.20
26703;DHT22;14316;51.074;3.704;2022-08-30T12:28:29;36.20;91.00
26703;DHT22;14316;51.074;3.704;2022-08-30T12:31:09;36.00;83.40
26703;DHT22;14316;51.074;3.704;2022-08-30T12:33:48;35.20;84.00
26703;DHT22;14316;51.074;3.704;2022-08-30T12:36:36;36.10;84.50
26703;DHT22;14316;51.074;3.704;2022-08-30T12:39:18;36.30;83.50
26703;DHT22;14316;51.074;3.704;2022-08-30T12:41:44;37.60;76.00
26703;DHT22;14316;51.074;3.704;2022-08-30T12:44:23;37.40;75.00
26703;DHT22;14316;51.074;3.704;2022-08-30T12:47:01;38.40;71.50
26703;DHT22;14316;51.074;3.704;2022-08-30T12:49:31;37.30;70.60
26703;DHT22;14316;51.074;3.704;2022-08-30T12:55:27;35.60;71.20
26703;DHT22;14316;51.074;3.704;2022-08-30T13:00:33;40.20;66.20
26703;DHT22;14316;51.074;3.704;2022-08-30T13:05:48;38.90;65.50
26703;DHT22;14316;51.074;3.704;2022-08-30T13:08:22;38.30;67.90
26703;DHT22;14316;51.074;3.704;2022-08-30T13:11:05;37.70;64.90
26703;DHT22;14316;51.074;3.704;2022-08-30T13:13:44;37.70;63.40
26703;DHT22;14316;51.074;3.704;2022-08-30T13:18:47;39.40;63.70
26703;DHT22;14316;51.074;3.704;2022-08-30T13:21:29;39.70;60.90
26703;DHT22;14316;51.074;3.704;2022-08-30T13:24:01;39.60;61.40
26703;DHT22;14316;51.074;3.704;2022-08-30T13:26:31;36.60;61.70
26703;DHT22;14316;51.074;3.704;2022-08-30T13:28:59;35.60;66.80
26703;DHT22;14316;51.074;3.704;2022-08-30T13:31:27;36.80;65.10
26703;DHT22;14316;51.074;3.704;2022-08-30T13:33:56;37.50;65.20
26703;DHT22;14316;51.074;3.704;2022-08-30T13:36:27;36.60;63.00
26703;DHT22;14316;51.074;3.704;2022-08-30T13:38:53;34.90;66.30
26703;DHT22;14316;51.074;3.704;2022-08-30T13:41:19;34.50;68.10
26703;DHT22;14316;51.074;3.704;2022-08-30T13:43:46;36.00;65.20
26703;DHT22;14316;51.074;3.704;2022-08-30T13:46:15;38.00;64.30
26703;DHT22;14316;51.074;3.704;2022-08-30T13:48:41;40.30;60.50
26703;DHT22;14316;51.074;3.704;2022-08-30T13:51:07;41.50;59.20
26703;DHT22;14316;51.074;3.704;2022-08-30T13:53:34;40.60;55.40
26703;DHT22;14316;51.074;3.704;2022-08-30T13:56:01;38.60;58.60
26703;DHT22;14316;51.074;3.704;2022-08-30T13:58:30;36.20;60.10
26703;DHT22;14316;51.074;3.704;2022-08-30T14:00:56;35.30;60.90
26703;DHT22;14316;51.074;3.704;2022-08-30T14:03:22;34.70;62.30
26703;DHT22;14316;51.074;3.704;2022-08-30T14:05:48;34.30;63.10
26703;DHT22;14316;51.074;3.704;2022-08-30T14:08:20;35.70;63.30
26703;DHT22;14316;51.074;3.704;2022-08-30T14:10:47;38.20;62.80
26703;DHT22;14316;51.074;3.704;2022-08-30T14:13:13;38.20;57.90
26703;DHT22;14316;51.074;3.704;2022-08-30T14:15:39;37.20;59.40
26703;DHT22;14316;51.074;3.704;2022-08-30T14:18:06;38.00;61.30
26703;DHT22;14316;51.074;3.704;2022-08-30T14:20:33;40.20;61.50
26703;DHT22;14316;51.074;3.704;2022-08-30T14:23:02;42.40;55.10
26703;DHT22;14316;51.074;3.704;2022-08-30T14:25:27;44.20;53.20
26703;DHT22;14316;51.074;3.704;2022-08-30T14:27:54;44.10;51.30
26703;DHT22;14316;51.074;3.704;2022-08-30T14:30:23;44.20;53.20
26703;DHT22;14316;51.074;3.704;2022-08-30T14:32:49;45.40;51.30
26703;DHT22;14316;51.074;3.704;2022-08-30T14:35:16;44.50;49.70
26703;DHT22;14316;51.074;3.704;2022-08-30T14:37:44;42.80;48.00
26703;DHT22;14316;51.074;3.704;2022-08-30T14:40:11;42.80;53.30
26703;DHT22;14316;51.074;3.704;2022-08-30T14:42:40;42.00;49.20
26703;DHT22;14316;51.074;3.704;2022-08-30T14:45:06;41.20;49.30
26703;DHT22;14316;51.074;3.704;2022-08-30T14:47:32;42.50;49.70
26703;DHT22;14316;51.074;3.704;2022-08-30T14:49:58;43.10;49.60
26703;DHT22;14316;51.074;3.704;2022-08-30T14:52:29;42.70;49.20
26703;DHT22;14316;51.074;3.704;2022-08-30T14:54:57;43.50;49.40
26703;DHT22;14316;51.074;3.704;2022-08-30T14:57:23;43.10;47.30
26703;DHT22;14316;51.074;3.704;2022-08-30T14:59:49;40.70;49.60
26703;DHT22;14316;51.074;3.704;2022-08-30T15:02:15;39.60;50.10
26703;DHT22;14316;51.074;3.704;2022-08-30T15:04:41;38.40;51.30
26703;DHT22;14316;51.074;3.704;2022-08-30T15:07:07;37.60;53.50
26703;DHT22;14316;51.074;3.704;2022-08-30T15:09:33;37.00;52.40
26703;DHT22;14316;51.074;3.704;2022-08-30T15:11:59;37.00;53.90
26703;DHT22;14316;51.074;3.704;2022-08-30T15:14:27;36.00;53.50
26703;DHT22;14316;51.074;3.704;2022-08-30T15:16:54;35.20;55.80
26703;DHT22;14316;51.074;3.704;2022-08-30T15:19:20;34.60;54.40
26703;DHT22;14316;51.074;3.704;2022-08-30T15:21:47;35.20;54.80
26703;DHT22;14316;51.074;3.704;2022-08-30T15:24:15;36.50;53.70
26703;DHT22;14316;51.074;3.704;2022-08-30T15:26:41;36.60;54.60
26703;DHT22;14316;51.074;3.704;2022-08-30T15:29:13;36.50;52.70
26703;DHT22;14316;51.074;3.704;2022-08-30T15:31:43;36.20;54.90
26703;DHT22;14316;51.074;3.704;2022-08-30T15:34:11;36.20;53.30
26703;DHT22;14316;51.074;3.704;2022-08-30T15:36:38;35.60;53.40
26703;DHT22;14316;51.074;3.704;2022-08-30T15:39:05;35.20;54.30
26703;DHT22;14316;51.074;3.704;2022-08-30T15:41:30;34.50;54.50
26703;DHT22;14316;51.074;3.704;2022-08-30T15:43:57;34.60;55.20
26703;DHT22;14316;51.074;3.704;2022-08-30T15:46:28;34.50;57.00
26703;DHT22;14316;51.074;3.704;2022-08-30T15:49:02;33.70;56.40
26703;DHT22;14316;51.074;3.704;2022-08-30T15:51:29;33.60;55.80
26703;DHT22;14316;51.074;3.704;2022-08-30T15:53:55;33.30;56.50
26703;DHT22;14316;51.074;3.704;2022-08-30T15:56:21;32.80;56.00
26703;DHT22;14316;51.074;3.704;2022-08-30T15:58:48;32.60;56.90
26703;DHT22;14316;51.074;3.704;2022-08-30T16:01:14;32.10;58.20
26703;DHT22;14316;51.074;3.704;2022-08-30T16:03:42;31.80;58.70
26703;DHT22;14316;51.074;3.704;2022-08-30T16:06:31;30.90;59.10
26703;DHT22;14316;51.074;3.704;2022-08-30T16:08:59;30.10;61.20
26703;DHT22;14316;51.074;3.704;2022-08-30T16:11:25;29.70;62.20
26703;DHT22;14316;51.074;3.704;2022-08-30T16:13:53;29.40;62.50
26703;DHT22;14316;51.074;3.704;2022-08-30T16:16:20;28.90;63.40
26703;DHT22;14316;51.074;3.704;2022-08-30T16:18:47;28.40;64.50
26703;DHT22;14316;51.074;3.704;2022-08-30T16:21:17;28.00;66.10
26703;DHT22;14316;51.074;3.704;2022-08-30T16:23:45;27.60;66.70
26703;DHT22;14316;51.074;3.704;2022-08-30T16:26:14;27.50;68.50
26703;DHT22;14316;51.074;3.704;2022-08-30T16:28:43;27.20;68.10
26703;DHT22;14316;51.074;3.704;2022-08-30T16:31:28;27.10;68.70
26703;DHT22;14316;51.074;3.704;2022-08-30T16:33:58;26.70;67.90
26703;DHT22;14316;51.074;3.704;2022-08-30T16:36:26;26.50;68.70
26703;DHT22;14316;51.074;3.704;2022-08-30T16:38:52;26.40;69.80
26703;DHT22;14316;51.074;3.704;2022-08-30T16:41:19;26.40;71.50
26703;DHT22;14316;51.074;3.704;2022-08-30T16:43:45;26.10;70.90
26703;DHT22;14316;51.074;3.704;2022-08-30T16:46:14;25.90;70.50
26703;DHT22;14316;51.074;3.704;2022-08-30T16:48:41;25.90;72.00
26703;DHT22;14316;51.074;3.704;2022-08-30T16:51:14;25.80;71.20
26703;DHT22;14316;51.074;3.704;2022-08-30T16:53:43;26.10;72.20
26703;DHT22;14316;51.074;3.704;2022-08-30T16:56:16;26.60;72.40
26703;DHT22;14316;51.074;3.704;2022-08-30T16:58:42;26.80;68.30